Time;durP1;ratioP1;P1;durP2;ratioP2;P2;SDS_P1;SDS_P2;PMS_P1;PMS_P2;Temp;Humidity;BMP_temperature;BMP_pressure;BME280_temperature;BME280_humidity;BME280_pressure;Samples;Min_cycle;Max_cycle;Signal;HPM_P1;HPM_P2
2022/03/15 00:02:01;;;;;;;1.13;1.10;;;4.60;99.90;;;;;;5049152;28;20256;-62
2022/03/15 00:04:47;;;;;;;3.70;1.90;;;4.60;99.90;;;;;;5050575;28;20255;-50
2022/03/15 00:07:31;;;;;;;3.60;1.00;;;4.50;99.90;;;;;;5045004;28;20189;-61
2022/03/15 00:10:16;;;;;;;0.97;0.87;;;4.40;99.90;;;;;;5049745;28;20216;-51
2022/03/15 00:13:01;;;;;;;1.30;1.10;;;4.40;99.90;;;;;;5049332;28;20240;-65
2022/03/15 00:15:46;;;;;;;1.00;0.90;;;4.40;99.90;;;;;;5046505;28;20225;-50
2022/03/15 00:18:31;;;;;;;1.40;1.30;;;4.30;99.90;;;;;;5050397;28;20240;-59
2022/03/15 00:21:16;;;;;;;3.53;1.17;;;4.40;99.90;;;;;;5047549;28;20200;-65
2022/03/15 00:24:02;;;;;;;1.30;1.17;;;4.40;99.90;;;;;;5046792;28;20208;-61
2022/03/15 00:26:47;;;;;;;1.33;1.23;;;4.40;99.90;;;;;;5050522;28;20269;-59
2022/03/15 00:29:31;;;;;;;2.30;0.90;;;4.40;99.90;;;;;;5046143;28;20215;-59
2022/03/15 00:32:19;;;;;;;4.37;0.97;;;4.30;99.90;;;;;;5048119;28;20197;-54
2022/03/15 00:35:11;;;;;;;0.80;0.70;;;4.30;99.90;;;;;;5049552;28;20225;-55
2022/03/15 00:37:55;;;;;;;1.37;1.27;;;4.40;99.90;;;;;;5044883;28;20213;-60
2022/03/15 00:40:40;;;;;;;0.83;0.80;;;4.50;99.90;;;;;;5049260;28;20298;-53
2022/03/15 00:43:24;;;;;;;1.23;1.23;;;4.30;99.90;;;;;;5049651;28;20193;-63
2022/03/15 00:46:09;;;;;;;1.13;0.97;;;4.40;99.90;;;;;;5045674;28;20205;-53
2022/03/15 00:48:53;;;;;;;0.80;0.73;;;4.40;99.90;;;;;;5049666;28;20190;-57
2022/03/15 00:51:37;;;;;;;1.30;1.20;;;4.50;99.90;;;;;;5047550;28;20232;-64
2022/03/15 00:54:22;;;;;;;1.27;1.20;;;4.40;99.90;;;;;;5046254;28;20233;-54
2022/03/15 00:57:08;;;;;;;1.30;1.20;;;4.40;99.90;;;;;;5049666;28;20200;-55
2022/03/15 00:59:52;;;;;;;1.40;0.97;;;4.40;99.90;;;;;;5045677;28;20236;-62
2022/03/15 01:02:37;;;;;;;2.73;1.00;;;4.50;99.90;;;;;;5051689;28;20213;-60
2022/03/15 01:05:21;;;;;;;0.80;0.80;;;4.30;99.90;;;;;;5053828;28;20193;-55
2022/03/15 01:08:06;;;;;;;5.37;0.90;;;4.30;99.90;;;;;;5049067;28;20193;-59
2022/03/15 01:10:51;;;;;;;1.27;0.77;;;4.20;99.90;;;;;;5053289;28;20209;-56
2022/03/15 01:13:35;;;;;;;1.17;0.90;;;4.20;99.90;;;;;;5052851;28;20229;-55
2022/03/15 01:16:19;;;;;;;1.17;0.93;;;4.20;99.90;;;;;;5049194;28;20205;-57
2022/03/15 01:19:06;;;;;;;1.10;1.10;;;4.10;99.90;;;;;;5053824;28;20193;-58
2022/03/15 01:21:52;;;;;;;2.43;1.20;;;4.10;99.90;;;;;;5051563;28;20302;-64
2022/03/15 01:24:36;;;;;;;1.47;1.37;;;4.00;99.90;;;;;;5049165;28;20201;-56
2022/03/15 01:27:21;;;;;;;1.47;1.27;;;4.00;99.90;;;;;;5053958;28;20192;-61
2022/03/15 01:30:06;;;;;;;1.90;1.17;;;4.00;99.90;;;;;;5049543;28;20275;-62
2022/03/15 01:32:51;;;;;;;1.10;1.10;;;4.00;99.90;;;;;;5050548;28;20251;-55
2022/03/15 01:35:35;;;;;;;2.33;0.93;;;4.00;99.90;;;;;;5053804;28;20251;-62
2022/03/15 01:38:20;;;;;;;0.87;0.70;;;4.00;99.90;;;;;;5048570;28;20197;-60
2022/03/15 01:41:04;;;;;;;1.80;1.60;;;4.00;99.90;;;;;;5052501;28;20189;-53
2022/03/15 01:43:49;;;;;;;2.07;1.20;;;4.00;99.90;;;;;;5066671;28;20239;-61
2022/03/15 01:46:34;;;;;;;1.67;1.00;;;3.80;99.90;;;;;;5049385;28;20248;-59
2022/03/15 01:49:18;;;;;;;0.73;0.73;;;3.70;99.90;;;;;;5053461;28;20194;-52
2022/03/15 01:52:03;;;;;;;3.67;0.90;;;3.70;99.90;;;;;;5050975;28;20232;-58
2022/03/15 01:54:50;;;;;;;2.73;1.43;;;3.80;99.90;;;;;;5049402;28;20225;-55
2022/03/15 01:57:35;;;;;;;1.10;1.10;;;3.80;99.90;;;;;;5052875;28;20229;-59
2022/03/15 02:00:20;;;;;;;1.33;1.27;;;3.70;99.90;;;;;;5049351;28;20265;-60
2022/03/15 02:03:05;;;;;;;1.40;1.00;;;3.60;99.90;;;;;;5050421;28;20228;-58
2022/03/15 02:05:50;;;;;;;2.20;1.13;;;3.50;99.90;;;;;;5052672;28;20251;-62
2022/03/15 02:08:35;;;;;;;2.00;1.30;;;3.60;99.90;;;;;;5048100;28;20198;-52
2022/03/15 02:11:20;;;;;;;1.63;1.37;;;3.60;99.90;;;;;;5051972;28;20209;-61
2022/03/15 02:14:05;;;;;;;1.23;1.10;;;3.60;99.90;;;;;;5051517;28;20283;-54
2022/03/15 02:16:50;;;;;;;0.57;0.57;;;3.50;99.90;;;;;;5048506;28;20221;-60
2022/03/15 02:19:36;;;;;;;1.53;1.37;;;3.40;99.90;;;;;;5052629;28;20237;-64
2022/03/15 02:22:22;;;;;;;1.97;1.27;;;3.40;99.90;;;;;;5050806;28;20344;-63
2022/03/15 02:25:06;;;;;;;4.87;1.43;;;3.50;99.90;;;;;;5048066;28;20201;-58
2022/03/15 02:27:52;;;;;;;1.90;1.50;;;3.50;99.90;;;;;;5052422;28;20243;-52
2022/03/15 02:30:37;;;;;;;2.50;1.33;;;3.50;99.90;;;;;;5049342;28;20252;-57
2022/03/15 02:33:21;;;;;;;1.77;1.07;;;3.50;99.90;;;;;;5050043;28;20244;-63
2022/03/15 02:36:06;;;;;;;2.30;1.37;;;3.50;99.90;;;;;;5052103;28;20185;-52
2022/03/15 02:38:50;;;;;;;3.83;1.30;;;3.60;99.90;;;;;;5047539;28;20309;-60
2022/03/15 02:41:35;;;;;;;1.43;1.30;;;3.60;99.90;;;;;;5051405;28;20197;-55
2022/03/15 02:44:19;;;;;;;2.07;1.83;;;3.60;99.90;;;;;;5051736;28;20253;-64
2022/03/15 02:47:04;;;;;;;0.87;0.87;;;3.60;99.90;;;;;;5048048;28;20193;-63
2022/03/15 02:49:48;;;;;;;8.27;1.57;;;3.60;99.90;;;;;;5052118;28;20193;-60
2022/03/15 02:52:32;;;;;;;1.23;1.00;;;3.60;99.90;;;;;;5049978;28;20197;-64
2022/03/15 02:55:18;;;;;;;2.33;1.27;;;3.60;99.90;;;;;;5048033;28;20254;-51
2022/03/15 02:58:02;;;;;;;1.37;0.93;;;3.70;99.90;;;;;;5052010;28;20274;-55
2022/03/15 03:00:48;;;;;;;1.33;1.23;;;3.70;99.90;;;;;;5048000;28;20260;-58
2022/03/15 03:03:32;;;;;;;1.17;1.07;;;3.70;99.90;;;;;;5049183;28;20225;-56
2022/03/15 03:06:17;;;;;;;4.23;1.07;;;3.70;99.90;;;;;;5052161;28;20201;-54
2022/03/15 03:09:01;;;;;;;1.63;1.10;;;3.70;99.90;;;;;;5047737;28;20265;-55
2022/03/15 03:11:46;;;;;;;1.17;1.07;;;3.70;99.90;;;;;;5051026;28;20395;-52
2022/03/15 03:14:30;;;;;;;0.97;0.97;;;3.70;99.90;;;;;;5051300;28;20233;-60
2022/03/15 03:17:14;;;;;;;1.53;1.40;;;3.60;99.90;;;;;;5047027;28;20209;-54
2022/03/15 03:19:59;;;;;;;2.07;1.40;;;3.50;99.90;;;;;;5051696;28;20304;-52
2022/03/15 03:22:45;;;;;;;0.67;0.67;;;3.50;99.90;;;;;;5049074;28;20267;-51
2022/03/15 03:25:31;;;;;;;1.70;0.50;;;3.50;99.90;;;;;;5047825;28;20204;-55
2022/03/15 03:28:17;;;;;;;1.60;1.50;;;3.60;99.90;;;;;;5051054;28;20235;-57
2022/03/15 03:31:03;;;;;;;1.73;1.37;;;3.60;99.90;;;;;;5047528;28;20211;-49
2022/03/15 03:33:48;;;;;;;1.00;1.00;;;3.70;99.90;;;;;;5048545;28;20271;-57
2022/03/15 03:36:34;;;;;;;1.17;1.13;;;3.70;99.90;;;;;;5050992;28;20209;-54
2022/03/15 03:39:19;;;;;;;1.57;1.47;;;3.70;99.90;;;;;;5045936;28;20237;-61
2022/03/15 03:42:05;;;;;;;1.13;1.00;;;3.80;99.90;;;;;;5050132;28;20551;-61
2022/03/15 03:44:50;;;;;;;0.97;0.93;;;3.80;99.90;;;;;;5065092;28;20213;-54
2022/03/15 03:47:35;;;;;;;4.23;1.60;;;3.80;99.90;;;;;;5046794;28;20201;-61
2022/03/15 03:50:19;;;;;;;1.37;1.27;;;3.70;99.90;;;;;;5050567;28;20240;-54
2022/03/15 03:53:04;;;;;;;1.17;1.17;;;3.60;99.90;;;;;;5049531;28;20197;-58
2022/03/15 03:55:49;;;;;;;1.47;1.37;;;3.60;99.90;;;;;;5046189;28;20267;-55
2022/03/15 03:58:34;;;;;;;4.37;1.27;;;3.50;99.90;;;;;;5050443;28;20201;-63
2022/03/15 04:01:18;;;;;;;1.27;1.17;;;3.50;99.90;;;;;;5047484;28;20201;-63
2022/03/15 04:04:05;;;;;;;1.00;0.90;;;3.50;99.90;;;;;;5048132;28;20278;-54
2022/03/15 04:06:50;;;;;;;15.10;6.67;;;3.60;99.90;;;;;;5050148;28;20217;-55
2022/03/15 04:09:34;;;;;;;2.80;1.80;;;3.60;99.90;;;;;;5046198;28;20254;-60
2022/03/15 04:12:22;;;;;;;1.43;0.70;;;3.80;99.90;;;;;;5049939;28;20240;-52
2022/03/15 04:15:06;;;;;;;1.50;1.23;;;4.00;99.90;;;;;;5050880;28;20258;-51
2022/03/15 04:17:51;;;;;;;0.77;0.77;;;4.20;99.90;;;;;;5045845;28;20193;-59
2022/03/15 04:20:36;;;;;;;1.50;1.40;;;4.20;99.90;;;;;;5050259;28;20200;-63
2022/03/15 04:23:21;;;;;;;2.77;1.47;;;4.20;99.90;;;;;;5049832;28;20274;-58
2022/03/15 04:26:05;;;;;;;1.70;0.77;;;4.20;99.90;;;;;;5046253;28;20197;-58
2022/03/15 04:28:51;;;;;;;1.20;0.97;;;4.30;99.90;;;;;;5050682;28;20247;-50
2022/03/15 04:31:35;;;;;;;1.53;1.13;;;4.30;99.90;;;;;;5047389;28;20274;-61
2022/03/15 04:34:20;;;;;;;9.83;5.73;;;4.30;99.90;;;;;;5047436;28;20286;-63
2022/03/15 04:37:04;;;;;;;1.10;1.10;;;4.10;99.90;;;;;;5049555;28;20216;-59
2022/03/15 04:39:49;;;;;;;1.90;1.63;;;3.90;99.90;;;;;;5045991;28;20221;-58
2022/03/15 04:42:34;;;;;;;2.00;1.83;;;3.90;99.90;;;;;;5049049;28;20248;-62
2022/03/15 04:45:19;;;;;;;0.93;0.70;;;3.80;99.90;;;;;;5050332;28;20273;-63
2022/03/15 04:48:05;;;;;;;2.30;1.33;;;3.80;99.90;;;;;;5045036;28;20259;-62
2022/03/15 04:50:49;;;;;;;1.00;1.00;;;3.80;99.90;;;;;;5049672;28;20186;-60
2022/03/15 04:53:35;;;;;;;5.93;4.00;;;4.00;99.90;;;;;;5063251;28;20216;-61
2022/03/15 04:56:20;;;;;;;3.30;1.13;;;3.90;99.90;;;;;;5068973;28;20184;-56
2022/03/15 04:59:05;;;;;;;2.90;1.80;;;4.00;99.90;;;;;;5067658;28;20214;-58
2022/03/15 05:01:49;;;;;;;2.67;1.50;;;4.20;99.90;;;;;;5065049;28;20259;-62
2022/03/15 05:04:34;;;;;;;1.90;1.10;;;4.20;99.90;;;;;;5066002;28;20192;-62
2022/03/15 05:07:18;;;;;;;2.43;1.13;;;4.30;99.90;;;;;;5066162;28;20323;-53
2022/03/15 05:13:07;;;;;;;2.43;1.60;;;4.10;99.90;;;;;;5080594;28;20254;-62
2022/03/15 05:15:51;;;;;;;3.37;1.00;;;4.00;99.90;;;;;;5069148;28;20196;-61
2022/03/15 05:18:36;;;;;;;4.77;1.87;;;4.00;99.90;;;;;;5068183;28;20188;-57
2022/03/15 05:21:24;;;;;;;1.23;1.13;;;3.90;99.90;;;;;;5076575;28;20214;-61
2022/03/15 05:24:09;;;;;;;6.27;2.40;;;3.80;99.90;;;;;;5072615;28;20230;-63
2022/03/15 05:26:53;;;;;;;1.70;1.60;;;3.70;99.90;;;;;;5075016;28;20216;-58
2022/03/15 05:29:38;;;;;;;1.00;1.00;;;3.70;99.90;;;;;;5080426;28;20196;-54
2022/03/15 05:32:22;;;;;;;1.67;0.93;;;3.60;99.90;;;;;;5079658;28;20273;-56
2022/03/15 05:35:06;;;;;;;1.17;1.00;;;3.60;99.90;;;;;;5073228;28;20220;-57
2022/03/15 05:37:51;;;;;;;0.93;0.93;;;3.70;99.90;;;;;;5075900;28;20197;-57
2022/03/15 05:40:37;;;;;;;1.20;1.20;;;3.70;99.90;;;;;;5076951;28;20246;-61
2022/03/15 05:43:22;;;;;;;2.63;1.37;;;3.70;99.90;;;;;;5078281;28;20192;-59
2022/03/15 05:46:07;;;;;;;3.40;1.60;;;3.70;99.90;;;;;;5077428;28;20192;-49
2022/03/15 05:48:52;;;;;;;2.70;1.20;;;3.70;99.90;;;;;;5075851;28;20216;-49
2022/03/15 05:51:37;;;;;;;2.43;1.20;;;3.80;99.90;;;;;;5091285;28;20272;-50
2022/03/15 05:54:21;;;;;;;2.87;1.00;;;3.90;99.90;;;;;;5094009;28;20220;-58
2022/03/15 05:57:06;;;;;;;3.70;1.10;;;3.80;99.90;;;;;;5081497;28;20207;-54
2022/03/15 05:59:50;;;;;;;2.73;1.27;;;3.80;99.90;;;;;;5082897;28;20228;-51
2022/03/15 06:02:35;;;;;;;1.03;1.00;;;3.80;99.90;;;;;;5082139;28;20228;-64
2022/03/15 06:05:19;;;;;;;1.20;1.10;;;3.70;99.90;;;;;;5080217;28;20184;-56
2022/03/15 06:08:04;;;;;;;3.50;1.80;;;3.80;99.90;;;;;;5080378;28;20322;-60
2022/03/15 06:10:48;;;;;;;1.13;1.13;;;3.80;99.90;;;;;;5079015;28;20196;-62
2022/03/15 06:13:33;;;;;;;0.70;0.70;;;3.90;99.90;;;;;;5079871;28;20220;-57
2022/03/15 06:16:17;;;;;;;1.73;1.57;;;3.80;99.90;;;;;;5081281;28;20282;-57
2022/03/15 06:19:02;;;;;;;2.57;1.20;;;3.90;99.90;;;;;;5074068;28;20200;-48
2022/03/15 06:21:46;;;;;;;1.30;1.20;;;4.00;99.90;;;;;;5080013;28;20223;-49
2022/03/15 06:24:32;;;;;;;1.40;1.30;;;4.00;99.90;;;;;;5072886;28;20319;-53
2022/03/15 06:27:16;;;;;;;1.37;1.30;;;4.10;99.90;;;;;;5067511;28;20201;-58
2022/03/15 06:30:03;;;;;;;1.30;1.13;;;4.10;99.90;;;;;;5073643;28;20228;-56
2022/03/15 06:32:48;;;;;;;1.47;1.00;;;4.20;99.90;;;;;;5071859;28;20232;-58
2022/03/15 06:35:33;;;;;;;1.70;1.20;;;4.20;99.90;;;;;;5068287;28;20201;-52
2022/03/15 06:38:19;;;;;;;1.70;1.33;;;4.40;99.90;;;;;;5074488;28;20181;-51
2022/03/15 06:41:04;;;;;;;1.80;1.47;;;4.40;99.90;;;;;;5065189;28;20189;-56
2022/03/15 06:43:49;;;;;;;2.03;1.00;;;4.50;99.90;;;;;;5066783;28;20200;-48
2022/03/15 06:46:35;;;;;;;1.20;1.20;;;4.40;99.90;;;;;;5071628;28;20262;-55
2022/03/15 06:49:19;;;;;;;1.20;1.10;;;4.60;99.90;;;;;;5067436;28;20187;-52
2022/03/15 06:52:04;;;;;;;1.37;1.20;;;4.60;99.90;;;;;;5067540;28;20635;-51
2022/03/15 06:54:49;;;;;;;1.37;1.27;;;4.70;99.90;;;;;;5074015;28;20220;-51
2022/03/15 06:57:34;;;;;;;4.97;1.47;;;4.80;99.90;;;;;;5064142;28;20193;-50
2022/03/15 07:00:19;;;;;;;0.87;0.87;;;4.80;99.90;;;;;;5067557;28;20254;-53
2022/03/15 07:03:04;;;;;;;1.80;1.57;;;4.90;99.90;;;;;;5066605;28;20205;-59
2022/03/15 07:05:48;;;;;;;2.33;1.13;;;5.00;99.90;;;;;;5064403;28;20185;-53
2022/03/15 07:08:34;;;;;;;1.37;1.33;;;5.00;99.90;;;;;;5069757;28;20251;-46
2022/03/15 07:11:18;;;;;;;1.43;0.90;;;5.10;99.90;;;;;;5062146;28;20411;-57
2022/03/15 07:14:04;;;;;;;1.10;1.10;;;5.30;99.90;;;;;;5066617;28;20216;-47
2022/03/15 07:16:49;;;;;;;1.50;1.20;;;5.30;99.90;;;;;;5072444;28;20189;-51
2022/03/15 07:19:33;;;;;;;3.57;1.40;;;5.30;99.90;;;;;;5064717;28;20516;-52
2022/03/15 07:22:17;;;;;;;0.97;0.97;;;5.10;99.90;;;;;;5065011;28;20197;-46
2022/03/15 07:25:02;;;;;;;0.80;0.80;;;5.00;99.90;;;;;;5069014;28;20205;-53
2022/03/15 07:27:48;;;;;;;1.77;1.30;;;5.10;99.90;;;;;;5066594;28;20355;-54
2022/03/15 07:30:32;;;;;;;1.37;1.27;;;5.20;99.90;;;;;;5070767;28;20200;-50
2022/03/15 07:33:17;;;;;;;2.10;1.17;;;5.20;99.90;;;;;;5066366;28;20185;-56
2022/03/15 07:36:02;;;;;;;1.20;1.10;;;5.30;99.90;;;;;;5063918;28;20247;-53
2022/03/15 07:38:49;;;;;;;2.27;0.80;;;5.30;99.90;;;;;;5070083;28;20236;-56
2022/03/15 07:41:39;;;;;;;2.17;1.17;;;5.50;99.90;;;;;;5063093;28;20192;-51
2022/03/15 07:44:23;;;;;;;2.30;1.67;;;5.40;99.90;;;;;;5061298;28;20208;-54
2022/03/15 07:47:14;;;;;;;0.93;0.90;;;5.50;99.90;;;;;;5069759;28;20284;-47
2022/03/15 07:49:59;;;;;;;1.20;1.20;;;5.60;99.90;;;;;;5066318;28;20318;-57
2022/03/15 07:52:47;;;;;;;1.57;1.47;;;5.60;99.90;;;;;;5065032;28;20256;-46
2022/03/15 07:55:32;;;;;;;2.03;1.43;;;5.80;99.90;;;;;;5069758;28;20251;-52
2022/03/15 07:58:16;;;;;;;1.23;1.17;;;5.90;99.90;;;;;;5066005;28;20197;-57
2022/03/15 08:01:02;;;;;;;3.93;1.13;;;6.00;99.90;;;;;;5065502;28;20205;-54
2022/03/15 08:03:48;;;;;;;1.47;1.20;;;6.20;99.90;;;;;;5066846;28;20232;-55
2022/03/15 08:06:35;;;;;;;1.20;1.10;;;6.50;99.90;;;;;;5063797;28;20232;-49
2022/03/15 08:09:19;;;;;;;4.60;1.93;;;6.30;99.90;;;;;;5070257;28;20220;-52
2022/03/15 08:12:05;;;;;;;2.53;1.23;;;6.60;99.90;;;;;;5063152;28;20201;-54
2022/03/15 08:14:49;;;;;;;1.53;1.20;;;6.70;99.90;;;;;;5065313;28;20229;-50
2022/03/15 08:17:34;;;;;;;4.33;1.33;;;6.90;99.90;;;;;;5066964;28;20428;-50
2022/03/15 08:20:19;;;;;;;1.70;1.20;;;7.00;99.90;;;;;;5063804;28;20204;-52
2022/03/15 08:23:04;;;;;;;1.60;1.53;;;7.30;99.90;;;;;;5065154;28;20204;-52
2022/03/15 08:25:48;;;;;;;2.00;1.60;;;7.30;99.90;;;;;;5068209;28;20234;-48
2022/03/15 08:28:33;;;;;;;1.67;1.23;;;7.50;99.90;;;;;;5065561;28;20274;-54
2022/03/15 08:31:17;;;;;;;1.90;1.00;;;7.70;99.90;;;;;;5065936;28;20197;-54
2022/03/15 08:34:02;;;;;;;2.47;1.60;;;7.90;99.90;;;;;;5065322;28;20290;-52
2022/03/15 08:36:47;;;;;;;3.07;1.50;;;8.00;99.90;;;;;;5064524;28;20204;-48
2022/03/15 08:39:32;;;;;;;2.40;1.00;;;8.00;99.90;;;;;;5069980;28;20317;-57
2022/03/15 08:42:16;;;;;;;1.20;1.10;;;7.80;99.90;;;;;;5064133;28;20216;-55
2022/03/15 08:45:01;;;;;;;2.27;1.60;;;8.00;99.90;;;;;;5064849;28;20272;-59
2022/03/15 08:47:45;;;;;;;1.67;1.57;;;8.30;99.90;;;;;;5068263;28;20224;-55
2022/03/15 08:50:30;;;;;;;8.53;1.53;;;8.20;99.90;;;;;;5056942;28;20217;-59
2022/03/15 08:53:14;;;;;;;2.43;1.43;;;8.10;99.90;;;;;;5068576;28;20287;-57
2022/03/15 08:55:59;;;;;;;3.23;2.20;;;8.00;99.90;;;;;;5069670;28;20200;-51
2022/03/15 08:58:44;;;;;;;1.27;1.17;;;8.40;99.90;;;;;;5063211;28;20209;-56
2022/03/15 09:01:29;;;;;;;1.60;1.10;;;8.80;99.90;;;;;;5060066;28;20278;-55
2022/03/15 09:04:13;;;;;;;1.53;1.43;;;9.00;99.90;;;;;;5067507;28;20261;-59
2022/03/15 09:06:57;;;;;;;2.73;1.67;;;9.10;99.90;;;;;;5066062;28;20250;-55
2022/03/15 09:09:41;;;;;;;2.70;1.30;;;8.90;99.90;;;;;;5070048;28;20250;-57
2022/03/15 09:12:26;;;;;;;1.47;1.37;;;9.30;99.90;;;;;;5064623;28;20247;-57
2022/03/15 09:15:10;;;;;;;1.93;1.53;;;9.30;99.90;;;;;;5066458;28;20278;-54
2022/03/15 09:17:56;;;;;;;2.10;1.40;;;9.40;99.90;;;;;;5070740;28;20201;-47
2022/03/15 09:20:42;;;;;;;1.63;1.53;;;9.60;99.90;;;;;;5057655;28;20269;-59
2022/03/15 09:23:26;;;;;;;2.73;1.37;;;9.90;99.90;;;;;;5070420;28;20193;-54
2022/03/15 09:26:11;;;;;;;1.80;1.60;;;10.50;99.90;;;;;;5079384;28;20205;-53
2022/03/15 09:28:56;;;;;;;2.27;1.40;;;10.30;99.90;;;;;;5067244;28;20205;-50
2022/03/15 09:31:40;;;;;;;2.20;1.57;;;10.90;99.90;;;;;;5069394;28;20261;-57
2022/03/15 09:34:27;;;;;;;1.37;1.37;;;11.30;99.90;;;;;;5073885;28;20247;-54
2022/03/15 09:37:12;;;;;;;2.43;2.17;;;11.40;99.90;;;;;;5069803;28;20201;-53
2022/03/15 09:39:57;;;;;;;1.77;1.53;;;11.40;99.90;;;;;;5072108;28;20350;-57
2022/03/15 09:42:44;;;;;;;1.73;1.63;;;11.60;99.90;;;;;;5068438;28;20250;-60
2022/03/15 09:45:32;;;;;;;2.77;1.70;;;11.40;99.90;;;;;;5068767;28;20204;-51
2022/03/15 09:48:21;;;;;;;1.53;1.43;;;11.60;99.90;;;;;;5073445;28;20238;-52
2022/03/15 09:51:06;;;;;;;1.87;1.77;;;11.00;99.90;;;;;;5064692;28;20584;-54
2022/03/15 09:53:52;;;;;;;1.50;1.40;;;11.00;99.90;;;;;;5069802;28;20335;-53
2022/03/15 09:56:40;;;;;;;5.13;1.60;;;10.90;99.90;;;;;;5073474;28;20201;-49
2022/03/15 09:59:26;;;;;;;2.97;1.83;;;10.90;99.90;;;;;;5069543;28;20269;-51
2022/03/15 10:02:13;;;;;;;2.37;1.73;;;11.10;99.80;;;;;;5068491;28;20247;-56
2022/03/15 10:04:57;;;;;;;2.83;1.90;;;11.20;99.80;;;;;;5072759;28;20197;-48
2022/03/15 10:07:41;;;;;;;3.70;2.10;;;11.20;99.10;;;;;;5068898;28;20193;-56
2022/03/15 10:10:27;;;;;;;1.67;1.57;;;11.20;99.20;;;;;;5073039;28;20235;-52
2022/03/15 10:13:12;;;;;;;2.40;1.90;;;11.10;99.20;;;;;;5069557;28;20200;-59
2022/03/15 10:16:00;;;;;;;3.17;2.27;;;11.20;99.20;;;;;;5069450;28;20275;-58
2022/03/15 10:18:55;;;;;;;3.27;2.47;;;11.30;98.90;;;;;;5072794;28;20228;-57
2022/03/15 10:21:48;;;;;;;2.43;2.23;;;11.20;98.80;;;;;;5067829;28;20193;-58
2022/03/15 10:24:32;;;;;;;3.63;2.10;;;11.40;98.50;;;;;;5065361;28;20233;-52
2022/03/15 10:27:17;;;;;;;4.00;2.23;;;11.70;98.10;;;;;;5073026;28;20192;-52
2022/03/15 10:30:03;;;;;;;2.73;2.13;;;11.90;97.40;;;;;;5069314;28;20580;-55
2022/03/15 10:32:48;;;;;;;6.10;2.80;;;12.10;97.30;;;;;;5064388;28;20199;-55
2022/03/15 10:35:40;;;;;;;6.60;2.87;;;12.10;97.00;;;;;;5071991;28;20247;-58
2022/03/15 10:38:25;;;;;;;4.20;2.70;;;12.10;96.80;;;;;;5068009;28;20334;-56
2022/03/15 10:41:14;;;;;;;5.67;2.70;;;12.20;96.90;;;;;;5067763;28;20205;-49
2022/03/15 10:43:59;;;;;;;6.97;3.90;;;12.30;96.30;;;;;;5072609;28;20253;-46
2022/03/15 10:46:44;;;;;;;5.07;3.40;;;12.10;96.50;;;;;;5068618;28;20266;-47
2022/03/15 10:49:29;;;;;;;4.30;3.10;;;12.20;96.40;;;;;;5072173;28;20257;-52
2022/03/15 10:52:27;;;;;;;5.00;3.23;;;12.30;95.90;;;;;;5067941;28;20239;-52
2022/03/15 10:55:22;;;;;;;6.50;3.27;;;12.20;95.80;;;;;;5067349;28;20232;-49
2022/03/15 10:58:09;;;;;;;4.53;3.00;;;12.10;95.90;;;;;;5100228;28;20242;-48
2022/03/15 11:00:54;;;;;;;6.73;3.87;;;12.10;96.00;;;;;;5066559;28;20201;-56
2022/03/15 11:03:38;;;;;;;4.70;3.30;;;11.90;96.30;;;;;;5067581;28;20215;-48
2022/03/15 11:06:43;;;;;;;5.27;2.73;;;12.00;96.20;;;;;;5069959;28;20200;-57
2022/03/15 11:09:29;;;;;;;5.33;2.97;;;12.30;95.90;;;;;;5071506;28;20247;-59
2022/03/15 11:12:13;;;;;;;5.80;3.20;;;12.30;96.00;;;;;;5058736;28;20197;-52
2022/03/15 11:14:59;;;;;;;4.23;3.00;;;12.70;95.70;;;;;;5072219;28;20225;-56
2022/03/15 11:17:26;;;;;;;5.07;3.20;;;12.50;95.40;;;;;;5049686;28;20190;-60
2022/03/15 11:20:11;;;;;;;9.27;5.33;;;12.60;95.50;;;;;;5069577;28;20201;-51
2022/03/15 11:22:59;;;;;;;12.43;6.40;;;12.70;95.20;;;;;;5068781;28;20195;-59
2022/03/15 11:25:48;;;;;;;5.67;3.27;;;12.70;95.40;;;;;;5064477;28;20303;-58
2022/03/15 11:28:34;;;;;;;6.83;3.63;;;12.70;95.20;;;;;;5069188;28;20209;-53
2022/03/15 11:31:19;;;;;;;7.20;3.77;;;12.70;95.10;;;;;;5068985;28;20242;-57
2022/03/15 11:34:05;;;;;;;3.87;3.00;;;12.80;95.20;;;;;;5067557;28;20223;-48
2022/03/15 11:36:51;;;;;;;4.57;2.93;;;13.00;95.10;;;;;;5069324;28;20272;-52
2022/03/15 11:39:38;;;;;;;4.57;3.13;;;13.10;94.50;;;;;;5069853;28;20228;-60
2022/03/15 11:42:24;;;;;;;2.83;2.60;;;13.00;94.80;;;;;;5063808;28;20235;-52
2022/03/15 11:45:27;;;;;;;4.93;3.70;;;13.10;94.60;;;;;;5071051;28;20213;-55
2022/03/15 11:48:39;;;;;;;5.20;3.40;;;13.00;94.80;;;;;;5069596;28;20204;-58
2022/03/15 11:51:32;;;;;;;4.47;3.13;;;12.90;94.80;;;;;;5062466;28;20257;-56
2022/03/15 11:54:19;;;;;;;6.00;2.83;;;12.60;94.90;;;;;;5076547;28;20302;-57
2022/03/15 11:57:13;;;;;;;5.00;3.37;;;12.50;95.00;;;;;;5078036;28;20281;-51
2022/03/15 11:59:58;;;;;;;4.50;3.20;;;12.70;94.40;;;;;;5072321;28;20215;-55
2022/03/15 12:02:48;;;;;;;4.93;3.70;;;12.70;94.50;;;;;;5072662;28;20246;-57
2022/03/15 12:05:48;;;;;;;4.27;2.90;;;13.00;94.30;;;;;;5070845;28;20251;-59
2022/03/15 12:08:35;;;;;;;9.20;3.20;;;12.70;94.20;;;;;;5066572;28;20200;-52
2022/03/15 12:11:39;;;;;;;4.27;3.33;;;12.70;94.40;;;;;;5067383;28;20207;-55
2022/03/15 12:14:41;;;;;;;4.60;3.33;;;12.90;93.90;;;;;;5073647;28;20235;-59
2022/03/15 12:17:25;;;;;;;7.00;3.10;;;13.00;93.70;;;;;;5065504;28;20322;-53
2022/03/15 12:19:51;;;;;;;4.13;3.70;;;13.00;93.70;;;;;;5050518;28;20200;-48
2022/03/15 12:22:36;;;;;;;4.43;3.10;;;13.00;93.70;;;;;;5064232;28;20208;-60
2022/03/15 12:25:32;;;;;;;7.43;4.17;;;13.00;93.70;;;;;;5067029;28;20185;-52
2022/03/15 12:28:29;;;;;;;8.90;3.73;;;13.20;93.60;;;;;;5098087;28;20193;-55
2022/03/15 12:31:13;;;;;;;4.20;3.00;;;13.00;93.70;;;;;;5061162;28;20258;-54
2022/03/15 12:34:09;;;;;;;5.47;3.63;;;13.20;93.50;;;;;;5064115;28;20231;-54
2022/03/15 12:37:01;;;;;;;7.53;4.17;;;12.80;93.60;;;;;;5069591;28;20197;-49
2022/03/15 12:39:57;;;;;;;3.63;3.33;;;12.90;93.80;;;;;;5067472;28;20233;-51
2022/03/15 12:42:53;;;;;;;4.83;3.20;;;12.80;94.10;;;;;;5061578;28;20212;-57
2022/03/15 12:45:46;;;;;;;4.63;2.87;;;12.80;94.00;;;;;;5074717;28;20246;-48
2022/03/15 12:48:36;;;;;;;5.17;2.93;;;12.70;94.00;;;;;;5071029;28;20197;-52
2022/03/15 12:51:20;;;;;;;5.47;3.90;;;12.80;94.10;;;;;;5063206;28;20323;-51
2022/03/15 12:54:07;;;;;;;3.83;3.33;;;12.80;93.90;;;;;;5070405;28;20319;-49
2022/03/15 12:56:52;;;;;;;4.90;3.37;;;12.80;93.90;;;;;;5066777;28;20196;-57
2022/03/15 12:59:38;;;;;;;6.50;3.10;;;12.80;93.90;;;;;;5065343;28;20252;-53
2022/03/15 13:02:22;;;;;;;7.20;3.63;;;12.90;93.80;;;;;;5066835;28;20196;-47
2022/03/15 13:05:15;;;;;;;4.33;3.10;;;12.90;93.60;;;;;;5065023;28;20197;-59
2022/03/15 13:08:02;;;;;;;6.23;3.20;;;12.80;93.50;;;;;;5068037;28;20192;-56
2022/03/15 13:10:48;;;;;;;6.23;3.13;;;12.70;93.80;;;;;;5066017;28;20203;-49
2022/03/15 13:13:32;;;;;;;7.03;3.27;;;12.80;93.90;;;;;;5064122;28;20236;-56
2022/03/15 13:16:21;;;;;;;3.07;2.53;;;12.80;93.80;;;;;;5070051;28;20239;-58
2022/03/15 13:19:06;;;;;;;5.87;3.00;;;13.00;93.90;;;;;;5070296;28;20220;-56
2022/03/15 13:21:50;;;;;;;3.93;2.90;;;13.10;93.70;;;;;;5054883;28;20291;-48
2022/03/15 13:24:37;;;;;;;3.40;3.07;;;13.20;93.70;;;;;;5069305;28;20250;-48
2022/03/15 13:27:22;;;;;;;5.73;2.93;;;13.30;93.60;;;;;;5067611;28;20231;-55
2022/03/15 13:30:11;;;;;;;4.70;3.17;;;13.20;93.60;;;;;;5066385;28;20211;-52
2022/03/15 13:32:55;;;;;;;5.37;3.37;;;13.10;93.60;;;;;;5066398;28;20273;-52
2022/03/15 13:35:40;;;;;;;6.23;3.00;;;12.90;93.80;;;;;;5068349;28;20219;-60
2022/03/15 13:38:26;;;;;;;4.33;2.90;;;12.80;94.10;;;;;;5066084;28;20269;-58
2022/03/15 13:41:13;;;;;;;4.63;3.53;;;12.90;94.20;;;;;;5065373;28;20196;-50
2022/03/15 13:43:59;;;;;;;7.47;3.80;;;12.90;94.10;;;;;;5064788;28;20193;-50
2022/03/15 13:46:44;;;;;;;3.67;2.77;;;12.90;94.10;;;;;;5068551;28;20266;-51
2022/03/15 13:49:31;;;;;;;3.50;2.87;;;12.80;94.20;;;;;;5068617;28;20193;-56
2022/03/15 13:52:19;;;;;;;3.93;2.70;;;12.70;94.10;;;;;;5064052;28;20232;-49
2022/03/15 13:55:10;;;;;;;8.23;3.57;;;12.70;94.30;;;;;;5069078;28;20248;-50
2022/03/15 13:57:54;;;;;;;4.70;2.93;;;12.60;94.70;;;;;;5062460;28;20230;-59
2022/03/15 14:00:39;;;;;;;4.57;2.97;;;12.50;95.30;;;;;;5063871;28;20185;-59
2022/03/15 14:03:29;;;;;;;4.20;3.20;;;12.40;95.90;;;;;;5067101;28;20200;-51
2022/03/15 14:06:15;;;;;;;2.70;2.50;;;12.30;96.50;;;;;;5067794;28;20243;-60
2022/03/15 14:09:00;;;;;;;5.00;2.90;;;12.20;96.20;;;;;;5064504;28;20274;-55
2022/03/15 14:11:46;;;;;;;7.93;4.00;;;12.10;96.30;;;;;;5069123;28;20212;-55
2022/03/15 14:14:30;;;;;;;9.60;4.50;;;12.10;96.30;;;;;;5067379;28;20282;-58
2022/03/15 14:17:18;;;;;;;4.73;3.23;;;12.10;96.10;;;;;;5068029;28;20311;-57
2022/03/15 14:20:12;;;;;;;5.40;2.97;;;12.00;97.50;;;;;;5076504;28;20193;-52
2022/03/15 14:22:57;;;;;;;4.97;2.97;;;11.90;98.00;;;;;;5064833;28;20196;-50
2022/03/15 14:25:43;;;;;;;3.60;2.70;;;11.90;99.40;;;;;;5072652;28;20220;-58
2022/03/15 14:28:28;;;;;;;3.50;2.73;;;11.90;99.20;;;;;;5076441;28;20197;-52
2022/03/15 14:31:12;;;;;;;4.07;2.60;;;11.80;99.70;;;;;;5070002;28;20205;-49
2022/03/15 14:34:01;;;;;;;2.70;2.43;;;11.90;99.90;;;;;;5069022;28;20229;-56